sensor_id;sensor_type;location;lat;lon;timestamp;temperature;humidity
59311;DHT22;45078;51.654;21.250;2022-12-07T00:02:24;2.10;99.90
59311;DHT22;45078;51.654;21.250;2022-12-07T00:04:50;2.10;99.90
59311;DHT22;45078;51.654;21.250;2022-12-07T00:07:16;2.20;99.90
59311;DHT22;45078;51.654;21.250;2022-12-07T00:09:41;2.30;99.90
59311;DHT22;45078;51.654;21.250;2022-12-07T00:12:08;2.30;99.90
59311;DHT22;45078;51.654;21.250;2022-12-07T00:14:34;2.30;99.90
59311;DHT22;45078;51.654;21.250;2022-12-07T00:16:59;2.30;99.90
59311;DHT22;45078;51.654;21.250;2022-12-07T00:19:25;2.30;99.90
59311;DHT22;45078;51.654;21.250;2022-12-07T00:21:51;2.30;99.90
59311;DHT22;45078;51.654;21.250;2022-12-07T00:24:17;2.20;99.90
59311;DHT22;45078;51.654;21.250;2022-12-07T00:26:43;2.30;99.90
59311;DHT22;45078;51.654;21.250;2022-12-07T00:29:17;2.20;99.90
59311;DHT22;45078;51.654;21.250;2022-12-07T00:31:43;2.30;99.90
59311;DHT22;45078;51.654;21.250;2022-12-07T00:34:14;2.20;99.90
59311;DHT22;45078;51.654;21.250;2022-12-07T00:36:40;2.20;99.90
59311;DHT22;45078;51.654;21.250;2022-12-07T00:39:06;2.20;99.90
59311;DHT22;45078;51.654;21.250;2022-12-07T00:41:32;2.20;99.90
59311;DHT22;45078;51.654;21.250;2022-12-07T00:43:58;2.20;99.90
59311;DHT22;45078;51.654;21.250;2022-12-07T00:46:24;2.10;99.90
59311;DHT22;45078;51.654;21.250;2022-12-07T00:48:51;2.10;99.90
59311;DHT22;45078;51.654;21.250;2022-12-07T00:51:19;2.10;99.90
59311;DHT22;45078;51.654;21.250;2022-12-07T00:53:45;2.10;99.90
59311;DHT22;45078;51.654;21.250;2022-12-07T00:56:23;2.10;99.90
59311;DHT22;45078;51.654;21.250;2022-12-07T00:58:57;2.00;99.90
59311;DHT22;45078;51.654;21.250;2022-12-07T01:01:25;2.00;99.90
59311;DHT22;45078;51.654;21.250;2022-12-07T01:03:52;1.90;99.90
59311;DHT22;45078;51.654;21.250;2022-12-07T01:06:19;2.00;99.90
59311;DHT22;45078;51.654;21.250;2022-12-07T01:08:45;1.90;99.90
59311;DHT22;45078;51.654;21.250;2022-12-07T01:11:16;1.90;99.90
59311;DHT22;45078;51.654;21.250;2022-12-07T01:13:43;1.80;99.90
59311;DHT22;45078;51.654;21.250;2022-12-07T01:16:12;1.80;99.90
59311;DHT22;45078;51.654;21.250;2022-12-07T01:18:39;1.80;99.90
59311;DHT22;45078;51.654;21.250;2022-12-07T01:23:31;1.70;99.90
59311;DHT22;45078;51.654;21.250;2022-12-07T01:25:59;1.70;99.90
59311;DHT22;45078;51.654;21.250;2022-12-07T01:28:26;1.70;99.90
59311;DHT22;45078;51.654;21.250;2022-12-07T01:30:59;1.60;99.90
59311;DHT22;45078;51.654;21.250;2022-12-07T01:33:30;1.60;99.90
59311;DHT22;45078;51.654;21.250;2022-12-07T01:38:32;1.50;99.90
59311;DHT22;45078;51.654;21.250;2022-12-07T01:40:59;1.50;99.90
59311;DHT22;45078;51.654;21.250;2022-12-07T01:43:28;1.40;99.90
59311;DHT22;45078;51.654;21.250;2022-12-07T01:45:55;1.40;99.90
59311;DHT22;45078;51.654;21.250;2022-12-07T01:48:27;1.40;99.90
59311;DHT22;45078;51.654;21.250;2022-12-07T01:50:56;1.40;99.90
59311;DHT22;45078;51.654;21.250;2022-12-07T01:53:27;1.40;99.90
59311;DHT22;45078;51.654;21.250;2022-12-07T01:55:55;1.40;99.90
59311;DHT22;45078;51.654;21.250;2022-12-07T01:58:21;1.40;99.90
59311;DHT22;45078;51.654;21.250;2022-12-07T02:00:48;1.40;99.90
59311;DHT22;45078;51.654;21.250;2022-12-07T02:05:43;1.40;99.90
59311;DHT22;45078;51.654;21.250;2022-12-07T02:08:10;1.30;99.90
59311;DHT22;45078;51.654;21.250;2022-12-07T02:10:37;1.30;99.90
59311;DHT22;45078;51.654;21.250;2022-12-07T02:13:19;1.40;99.90
59311;DHT22;45078;51.654;21.250;2022-12-07T02:27:23;1.30;99.90
59311;DHT22;45078;51.654;21.250;2022-12-07T02:29:57;1.30;99.90
59311;DHT22;45078;51.654;21.250;2022-12-07T02:34:56;1.30;99.90
59311;DHT22;45078;51.654;21.250;2022-12-07T02:42:47;1.20;99.90
59311;DHT22;45078;51.654;21.250;2022-12-07T02:45:17;1.30;99.90
59311;DHT22;45078;51.654;21.250;2022-12-07T02:47:48;1.30;99.90
59311;DHT22;45078;51.654;21.250;2022-12-07T02:50:19;1.30;99.90
59311;DHT22;45078;51.654;21.250;2022-12-07T02:52:45;1.20;99.90
59311;DHT22;45078;51.654;21.250;2022-12-07T02:55:12;1.30;99.90
59311;DHT22;45078;51.654;21.250;2022-12-07T03:00:30;1.30;99.90
59311;DHT22;45078;51.654;21.250;2022-12-07T03:03:06;1.30;99.90
59311;DHT22;45078;51.654;21.250;2022-12-07T03:08:29;1.30;99.90
59311;DHT22;45078;51.654;21.250;2022-12-07T03:12:00;1.30;99.90
59311;DHT22;45078;51.654;21.250;2022-12-07T03:14:30;1.30;99.90
59311;DHT22;45078;51.654;21.250;2022-12-07T03:17:07;1.30;99.90
59311;DHT22;45078;51.654;21.250;2022-12-07T03:19:37;1.30;99.90
59311;DHT22;45078;51.654;21.250;2022-12-07T03:22:07;1.30;99.90
59311;DHT22;45078;51.654;21.250;2022-12-07T03:24:43;1.30;99.90
59311;DHT22;45078;51.654;21.250;2022-12-07T03:27:21;1.30;99.90
59311;DHT22;45078;51.654;21.250;2022-12-07T03:29:59;1.30;99.90
59311;DHT22;45078;51.654;21.250;2022-12-07T03:32:34;1.30;99.90
59311;DHT22;45078;51.654;21.250;2022-12-07T03:35:10;1.30;99.90
59311;DHT22;45078;51.654;21.250;2022-12-07T03:40:48;1.30;99.90
59311;DHT22;45078;51.654;21.250;2022-12-07T03:43:17;1.30;99.90
59311;DHT22;45078;51.654;21.250;2022-12-07T03:45:52;1.30;99.90
59311;DHT22;45078;51.654;21.250;2022-12-07T03:48:35;1.30;99.90
59311;DHT22;45078;51.654;21.250;2022-12-07T03:54:16;1.30;99.90
59311;DHT22;45078;51.654;21.250;2022-12-07T03:56:46;1.30;99.90
59311;DHT22;45078;51.654;21.250;2022-12-07T03:59:14;1.30;99.90
59311;DHT22;45078;51.654;21.250;2022-12-07T04:01:43;1.30;99.90
59311;DHT22;45078;51.654;21.250;2022-12-07T04:04:09;1.40;99.90
59311;DHT22;45078;51.654;21.250;2022-12-07T04:06:34;1.40;99.90
59311;DHT22;45078;51.654;21.250;2022-12-07T04:09:00;1.40;99.90
59311;DHT22;45078;51.654;21.250;2022-12-07T04:11:26;1.30;99.90
59311;DHT22;45078;51.654;21.250;2022-12-07T04:13:52;1.40;99.90
59311;DHT22;45078;51.654;21.250;2022-12-07T04:16:36;1.30;99.90
59311;DHT22;45078;51.654;21.250;2022-12-07T04:19:02;1.30;99.90
59311;DHT22;45078;51.654;21.250;2022-12-07T04:21:28;1.40;99.90
59311;DHT22;45078;51.654;21.250;2022-12-07T04:23:54;1.40;99.90
59311;DHT22;45078;51.654;21.250;2022-12-07T04:26:19;1.40;99.90
59311;DHT22;45078;51.654;21.250;2022-12-07T04:28:45;1.40;99.90
59311;DHT22;45078;51.654;21.250;2022-12-07T04:31:11;1.30;99.90
59311;DHT22;45078;51.654;21.250;2022-12-07T04:33:37;1.30;99.90
59311;DHT22;45078;51.654;21.250;2022-12-07T04:36:03;1.30;99.90
59311;DHT22;45078;51.654;21.250;2022-12-07T04:38:29;1.30;99.90
59311;DHT22;45078;51.654;21.250;2022-12-07T04:40:54;1.30;99.90
59311;DHT22;45078;51.654;21.250;2022-12-07T04:43:20;1.30;99.90
59311;DHT22;45078;51.654;21.250;2022-12-07T04:45:49;1.40;99.90
59311;DHT22;45078;51.654;21.250;2022-12-07T04:48:16;1.40;99.90
59311;DHT22;45078;51.654;21.250;2022-12-07T04:50:42;1.30;99.90
59311;DHT22;45078;51.654;21.250;2022-12-07T04:53:07;1.40;99.90
59311;DHT22;45078;51.654;21.250;2022-12-07T04:55:33;1.40;99.90
59311;DHT22;45078;51.654;21.250;2022-12-07T04:57:59;1.40;99.90
59311;DHT22;45078;51.654;21.250;2022-12-07T05:00:25;1.30;99.90
59311;DHT22;45078;51.654;21.250;2022-12-07T05:02:50;1.40;99.90
59311;DHT22;45078;51.654;21.250;2022-12-07T05:05:16;1.40;99.90
59311;DHT22;45078;51.654;21.250;2022-12-07T05:07:42;1.30;99.90
59311;DHT22;45078;51.654;21.250;2022-12-07T05:10:08;1.30;99.90
59311;DHT22;45078;51.654;21.250;2022-12-07T05:12:34;1.40;99.90
59311;DHT22;45078;51.654;21.250;2022-12-07T05:15:00;1.30;99.90
59311;DHT22;45078;51.654;21.250;2022-12-07T05:17:26;1.40;99.90
59311;DHT22;45078;51.654;21.250;2022-12-07T05:19:51;1.30;99.90
59311;DHT22;45078;51.654;21.250;2022-12-07T05:22:17;1.30;99.90
59311;DHT22;45078;51.654;21.250;2022-12-07T05:24:43;1.30;99.90
59311;DHT22;45078;51.654;21.250;2022-12-07T05:27:09;1.40;99.90
59311;DHT22;45078;51.654;21.250;2022-12-07T05:29:35;1.30;99.90
59311;DHT22;45078;51.654;21.250;2022-12-07T05:32:00;1.30;99.90
59311;DHT22;45078;51.654;21.250;2022-12-07T05:34:26;1.30;99.90
59311;DHT22;45078;51.654;21.250;2022-12-07T05:36:52;1.30;99.90
59311;DHT22;45078;51.654;21.250;2022-12-07T05:39:18;1.30;99.90
59311;DHT22;45078;51.654;21.250;2022-12-07T05:41:44;1.30;99.90
59311;DHT22;45078;51.654;21.250;2022-12-07T05:44:28;1.30;99.90
59311;DHT22;45078;51.654;21.250;2022-12-07T05:46:54;1.30;99.90
59311;DHT22;45078;51.654;21.250;2022-12-07T05:49:20;1.20;99.90
59311;DHT22;45078;51.654;21.250;2022-12-07T05:51:46;1.20;99.90
59311;DHT22;45078;51.654;21.250;2022-12-07T05:54:12;1.20;99.90
59311;DHT22;45078;51.654;21.250;2022-12-07T05:56:37;1.20;99.90
59311;DHT22;45078;51.654;21.250;2022-12-07T05:59:03;1.20;99.90
59311;DHT22;45078;51.654;21.250;2022-12-07T06:01:57;1.30;99.90
59311;DHT22;45078;51.654;21.250;2022-12-07T06:04:26;1.30;99.90
59311;DHT22;45078;51.654;21.250;2022-12-07T06:06:52;1.30;99.90
59311;DHT22;45078;51.654;21.250;2022-12-07T06:09:20;1.20;99.90
59311;DHT22;45078;51.654;21.250;2022-12-07T06:11:46;1.20;99.90
59311;DHT22;45078;51.654;21.250;2022-12-07T06:14:31;1.20;99.90
59311;DHT22;45078;51.654;21.250;2022-12-07T06:16:57;1.20;99.90
59311;DHT22;45078;51.654;21.250;2022-12-07T06:19:23;1.20;99.90
59311;DHT22;45078;51.654;21.250;2022-12-07T06:21:50;1.20;99.90
59311;DHT22;45078;51.654;21.250;2022-12-07T06:24:16;1.20;99.90
59311;DHT22;45078;51.654;21.250;2022-12-07T06:26:43;1.20;99.90
59311;DHT22;45078;51.654;21.250;2022-12-07T06:29:09;1.20;99.90
59311;DHT22;45078;51.654;21.250;2022-12-07T06:31:36;1.20;99.90
59311;DHT22;45078;51.654;21.250;2022-12-07T06:34:05;1.20;99.90
59311;DHT22;45078;51.654;21.250;2022-12-07T06:36:31;1.20;99.90
59311;DHT22;45078;51.654;21.250;2022-12-07T06:38:57;1.20;99.90
59311;DHT22;45078;51.654;21.250;2022-12-07T06:41:23;1.20;99.90
59311;DHT22;45078;51.654;21.250;2022-12-07T06:43:50;1.20;99.90
59311;DHT22;45078;51.654;21.250;2022-12-07T06:46:16;1.20;99.90
59311;DHT22;45078;51.654;21.250;2022-12-07T06:48:42;1.20;99.90
59311;DHT22;45078;51.654;21.250;2022-12-07T06:51:09;1.30;99.90
59311;DHT22;45078;51.654;21.250;2022-12-07T06:53:35;1.30;99.90
59311;DHT22;45078;51.654;21.250;2022-12-07T06:56:01;1.30;99.90
59311;DHT22;45078;51.654;21.250;2022-12-07T06:58:27;1.30;99.90
59311;DHT22;45078;51.654;21.250;2022-12-07T07:00:53;1.20;99.90
59311;DHT22;45078;51.654;21.250;2022-12-07T07:03:19;1.20;99.90
59311;DHT22;45078;51.654;21.250;2022-12-07T07:05:45;1.30;99.90
59311;DHT22;45078;51.654;21.250;2022-12-07T07:08:12;1.30;99.90
59311;DHT22;45078;51.654;21.250;2022-12-07T07:10:38;1.20;99.90
59311;DHT22;45078;51.654;21.250;2022-12-07T07:13:04;1.20;99.90
59311;DHT22;45078;51.654;21.250;2022-12-07T07:15:30;1.20;99.90
59311;DHT22;45078;51.654;21.250;2022-12-07T07:17:56;1.20;99.90
59311;DHT22;45078;51.654;21.250;2022-12-07T07:20:22;1.20;99.90
59311;DHT22;45078;51.654;21.250;2022-12-07T07:22:48;1.30;99.90
59311;DHT22;45078;51.654;21.250;2022-12-07T07:25:14;1.20;99.90
59311;DHT22;45078;51.654;21.250;2022-12-07T07:27:41;1.20;99.90
59311;DHT22;45078;51.654;21.250;2022-12-07T07:30:07;1.30;99.90
59311;DHT22;45078;51.654;21.250;2022-12-07T07:32:33;1.20;99.90
59311;DHT22;45078;51.654;21.250;2022-12-07T07:34:59;1.30;99.90
59311;DHT22;45078;51.654;21.250;2022-12-07T07:37:26;1.20;99.90
59311;DHT22;45078;51.654;21.250;2022-12-07T07:39:52;1.30;99.90
59311;DHT22;45078;51.654;21.250;2022-12-07T07:42:17;1.30;99.90
59311;DHT22;45078;51.654;21.250;2022-12-07T07:44:43;1.20;99.90
59311;DHT22;45078;51.654;21.250;2022-12-07T07:47:09;1.30;99.90
59311;DHT22;45078;51.654;21.250;2022-12-07T07:49:35;1.30;99.90
59311;DHT22;45078;51.654;21.250;2022-12-07T07:52:00;1.20;99.90
59311;DHT22;45078;51.654;21.250;2022-12-07T07:54:26;1.30;99.90
59311;DHT22;45078;51.654;21.250;2022-12-07T07:56:52;1.20;99.90
59311;DHT22;45078;51.654;21.250;2022-12-07T07:59:18;1.30;99.90
59311;DHT22;45078;51.654;21.250;2022-12-07T08:01:44;1.30;99.90
59311;DHT22;45078;51.654;21.250;2022-12-07T08:04:10;1.20;99.90
59311;DHT22;45078;51.654;21.250;2022-12-07T08:06:36;1.20;99.90
59311;DHT22;45078;51.654;21.250;2022-12-07T08:09:02;1.30;99.90
59311;DHT22;45078;51.654;21.250;2022-12-07T08:11:28;1.30;99.90
59311;DHT22;45078;51.654;21.250;2022-12-07T08:13:54;1.30;99.90
59311;DHT22;45078;51.654;21.250;2022-12-07T08:16:19;1.30;99.90
59311;DHT22;45078;51.654;21.250;2022-12-07T08:18:45;1.30;99.90
59311;DHT22;45078;51.654;21.250;2022-12-07T08:21:13;1.30;99.90
59311;DHT22;45078;51.654;21.250;2022-12-07T08:23:39;1.30;99.90
59311;DHT22;45078;51.654;21.250;2022-12-07T08:26:14;1.30;99.90
59311;DHT22;45078;51.654;21.250;2022-12-07T08:28:40;1.40;99.90
59311;DHT22;45078;51.654;21.250;2022-12-07T08:31:10;1.30;99.90
59311;DHT22;45078;51.654;21.250;2022-12-07T08:33:37;1.30;99.90
59311;DHT22;45078;51.654;21.250;2022-12-07T08:36:05;1.40;99.90
59311;DHT22;45078;51.654;21.250;2022-12-07T08:38:31;1.50;99.90
59311;DHT22;45078;51.654;21.250;2022-12-07T08:40:58;1.50;99.90
59311;DHT22;45078;51.654;21.250;2022-12-07T08:43:24;1.50;99.90
59311;DHT22;45078;51.654;21.250;2022-12-07T08:48:44;1.50;99.90
59311;DHT22;45078;51.654;21.250;2022-12-07T08:51:12;1.50;99.90
59311;DHT22;45078;51.654;21.250;2022-12-07T08:53:39;1.50;99.90
59311;DHT22;45078;51.654;21.250;2022-12-07T08:56:06;1.50;99.90
59311;DHT22;45078;51.654;21.250;2022-12-07T08:58:33;1.50;99.90
59311;DHT22;45078;51.654;21.250;2022-12-07T09:01:01;1.40;99.90
59311;DHT22;45078;51.654;21.250;2022-12-07T09:03:26;1.40;99.90
59311;DHT22;45078;51.654;21.250;2022-12-07T09:05:53;1.40;99.90
59311;DHT22;45078;51.654;21.250;2022-12-07T09:08:19;1.40;99.90
59311;DHT22;45078;51.654;21.250;2022-12-07T09:10:45;1.40;99.90
59311;DHT22;45078;51.654;21.250;2022-12-07T09:13:11;1.40;99.90
59311;DHT22;45078;51.654;21.250;2022-12-07T09:15:37;1.50;99.90
59311;DHT22;45078;51.654;21.250;2022-12-07T09:18:03;1.50;99.90
59311;DHT22;45078;51.654;21.250;2022-12-07T09:20:29;1.50;99.90
59311;DHT22;45078;51.654;21.250;2022-12-07T09:22:55;1.50;99.90
59311;DHT22;45078;51.654;21.250;2022-12-07T09:25:21;1.60;99.90
59311;DHT22;45078;51.654;21.250;2022-12-07T09:27:46;1.60;99.90
59311;DHT22;45078;51.654;21.250;2022-12-07T09:30:12;1.60;99.90
59311;DHT22;45078;51.654;21.250;2022-12-07T09:32:38;1.60;99.90
59311;DHT22;45078;51.654;21.250;2022-12-07T09:35:04;1.50;99.90
59311;DHT22;45078;51.654;21.250;2022-12-07T09:37:30;1.70;99.90
59311;DHT22;45078;51.654;21.250;2022-12-07T09:40:00;1.70;99.90
59311;DHT22;45078;51.654;21.250;2022-12-07T09:42:34;1.70;99.90
59311;DHT22;45078;51.654;21.250;2022-12-07T09:45:00;1.80;99.90
59311;DHT22;45078;51.654;21.250;2022-12-07T09:47:27;1.80;99.90
59311;DHT22;45078;51.654;21.250;2022-12-07T09:50:05;1.90;99.90
59311;DHT22;45078;51.654;21.250;2022-12-07T09:52:31;1.90;99.90
59311;DHT22;45078;51.654;21.250;2022-12-07T09:54:57;2.00;99.90
59311;DHT22;45078;51.654;21.250;2022-12-07T09:57:32;2.00;99.90
59311;DHT22;45078;51.654;21.250;2022-12-07T10:00:03;2.10;99.90
59311;DHT22;45078;51.654;21.250;2022-12-07T10:02:44;2.10;99.90
59311;DHT22;45078;51.654;21.250;2022-12-07T10:08:01;2.10;99.90
59311;DHT22;45078;51.654;21.250;2022-12-07T10:10:31;2.20;99.90
59311;DHT22;45078;51.654;21.250;2022-12-07T10:13:03;2.30;99.90
59311;DHT22;45078;51.654;21.250;2022-12-07T10:18:27;2.30;99.90
59311;DHT22;45078;51.654;21.250;2022-12-07T10:21:16;2.30;99.90
59311;DHT22;45078;51.654;21.250;2022-12-07T10:24:05;2.30;99.90
59311;DHT22;45078;51.654;21.250;2022-12-07T10:26:36;2.30;99.90
59311;DHT22;45078;51.654;21.250;2022-12-07T10:29:16;2.30;99.90
59311;DHT22;45078;51.654;21.250;2022-12-07T10:31:43;2.30;99.90
59311;DHT22;45078;51.654;21.250;2022-12-07T10:34:23;2.30;99.90
59311;DHT22;45078;51.654;21.250;2022-12-07T10:36:51;2.30;99.90
59311;DHT22;45078;51.654;21.250;2022-12-07T10:39:22;2.30;99.90
59311;DHT22;45078;51.654;21.250;2022-12-07T10:44:24;2.40;99.90
59311;DHT22;45078;51.654;21.250;2022-12-07T11:00:19;2.40;99.90
59311;DHT22;45078;51.654;21.250;2022-12-07T11:17:01;2.30;99.90
59311;DHT22;45078;51.654;21.250;2022-12-07T11:22:13;2.30;99.90
59311;DHT22;45078;51.654;21.250;2022-12-07T11:24:56;2.30;99.90
59311;DHT22;45078;51.654;21.250;2022-12-07T11:30:13;2.30;99.90
59311;DHT22;45078;51.654;21.250;2022-12-07T11:35:34;2.20;99.90
59311;DHT22;45078;51.654;21.250;2022-12-07T11:38:14;2.20;99.90
59311;DHT22;45078;51.654;21.250;2022-12-07T11:40:40;2.20;99.90
59311;DHT22;45078;51.654;21.250;2022-12-07T11:43:28;2.10;99.90
59311;DHT22;45078;51.654;21.250;2022-12-07T11:46:05;2.10;99.90
59311;DHT22;45078;51.654;21.250;2022-12-07T11:51:18;2.20;99.90
59311;DHT22;45078;51.654;21.250;2022-12-07T11:53:55;2.20;99.90
59311;DHT22;45078;51.654;21.250;2022-12-07T11:56:27;2.10;99.90
59311;DHT22;45078;51.654;21.250;2022-12-07T11:59:23;2.20;99.90
59311;DHT22;45078;51.654;21.250;2022-12-07T12:01:53;2.20;99.90
59311;DHT22;45078;51.654;21.250;2022-12-07T12:07:10;2.20;99.90
59311;DHT22;45078;51.654;21.250;2022-12-07T12:09:58;2.20;99.90
59311;DHT22;45078;51.654;21.250;2022-12-07T12:12:45;2.10;99.90
59311;DHT22;45078;51.654;21.250;2022-12-07T12:23:44;2.10;99.90
59311;DHT22;45078;51.654;21.250;2022-12-07T12:26:21;2.20;99.90
59311;DHT22;45078;51.654;21.250;2022-12-07T12:29:18;2.20;99.90
59311;DHT22;45078;51.654;21.250;2022-12-07T12:31:47;2.10;99.90
59311;DHT22;45078;51.654;21.250;2022-12-07T12:37:40;2.20;99.90
59311;DHT22;45078;51.654;21.250;2022-12-07T12:42:56;2.10;99.90
59311;DHT22;45078;51.654;21.250;2022-12-07T12:45:30;2.10;99.90
59311;DHT22;45078;51.654;21.250;2022-12-07T12:48:35;2.10;99.90
59311;DHT22;45078;51.654;21.250;2022-12-07T12:53:42;2.00;99.90
59311;DHT22;45078;51.654;21.250;2022-12-07T12:56:32;2.00;99.90
59311;DHT22;45078;51.654;21.250;2022-12-07T12:59:32;2.00;99.90
59311;DHT22;45078;51.654;21.250;2022-12-07T13:10:34;2.10;99.90
59311;DHT22;45078;51.654;21.250;2022-12-07T13:15:44;2.00;99.90
59311;DHT22;45078;51.654;21.250;2022-12-07T13:29:17;2.10;99.90
59311;DHT22;45078;51.654;21.250;2022-12-07T13:34:37;2.10;99.90
59311;DHT22;45078;51.654;21.250;2022-12-07T13:37:29;2.10;99.90
59311;DHT22;45078;51.654;21.250;2022-12-07T13:39:58;2.10;99.90
59311;DHT22;45078;51.654;21.250;2022-12-07T13:44:56;2.10;99.90
59311;DHT22;45078;51.654;21.250;2022-12-07T13:50:31;2.10;99.90
59311;DHT22;45078;51.654;21.250;2022-12-07T13:52:58;2.20;99.90
59311;DHT22;45078;51.654;21.250;2022-12-07T13:55:28;2.10;99.90
59311;DHT22;45078;51.654;21.250;2022-12-07T13:57:55;2.10;99.90
59311;DHT22;45078;51.654;21.250;2022-12-07T14:00:27;2.10;99.90
59311;DHT22;45078;51.654;21.250;2022-12-07T14:05:42;2.10;99.90
59311;DHT22;45078;51.654;21.250;2022-12-07T14:13:37;2.00;99.90
59311;DHT22;45078;51.654;21.250;2022-12-07T14:16:27;2.00;99.90
59311;DHT22;45078;51.654;21.250;2022-12-07T14:18:54;1.90;99.90
59311;DHT22;45078;51.654;21.250;2022-12-07T14:21:23;2.00;99.90
59311;DHT22;45078;51.654;21.250;2022-12-07T14:26:39;1.90;99.90
59311;DHT22;45078;51.654;21.250;2022-12-07T14:31:50;1.90;99.90
59311;DHT22;45078;51.654;21.250;2022-12-07T14:34:19;1.90;99.90
59311;DHT22;45078;51.654;21.250;2022-12-07T14:36:45;1.90;99.90
59311;DHT22;45078;51.654;21.250;2022-12-07T14:39:10;1.90;99.90
59311;DHT22;45078;51.654;21.250;2022-12-07T14:41:36;1.90;99.90
59311;DHT22;45078;51.654;21.250;2022-12-07T14:44:22;1.90;99.90
59311;DHT22;45078;51.654;21.250;2022-12-07T14:46:49;1.90;99.90
59311;DHT22;45078;51.654;21.250;2022-12-07T14:49:16;1.90;99.90
59311;DHT22;45078;51.654;21.250;2022-12-07T14:51:43;1.90;99.90
59311;DHT22;45078;51.654;21.250;2022-12-07T14:54:18;1.80;99.90
59311;DHT22;45078;51.654;21.250;2022-12-07T14:56:45;1.80;99.90
59311;DHT22;45078;51.654;21.250;2022-12-07T14:59:17;1.80;99.90
59311;DHT22;45078;51.654;21.250;2022-12-07T15:01:44;1.80;99.90
59311;DHT22;45078;51.654;21.250;2022-12-07T15:04:10;1.70;99.90
59311;DHT22;45078;51.654;21.250;2022-12-07T15:06:36;1.70;99.90
59311;DHT22;45078;51.654;21.250;2022-12-07T15:09:03;1.70;99.90
59311;DHT22;45078;51.654;21.250;2022-12-07T15:11:29;1.70;99.90
59311;DHT22;45078;51.654;21.250;2022-12-07T15:13:54;1.70;99.90
59311;DHT22;45078;51.654;21.250;2022-12-07T15:16:41;1.70;99.90
59311;DHT22;45078;51.654;21.250;2022-12-07T15:19:15;1.70;99.90
59311;DHT22;45078;51.654;21.250;2022-12-07T15:21:42;1.70;99.90
59311;DHT22;45078;51.654;21.250;2022-12-07T15:24:09;1.70;99.90
59311;DHT22;45078;51.654;21.250;2022-12-07T15:26:36;1.70;99.90
59311;DHT22;45078;51.654;21.250;2022-12-07T15:29:02;1.70;99.90
59311;DHT22;45078;51.654;21.250;2022-12-07T15:31:28;1.70;99.90
59311;DHT22;45078;51.654;21.250;2022-12-07T15:33:54;1.70;99.90
59311;DHT22;45078;51.654;21.250;2022-12-07T15:36:22;1.60;99.90
59311;DHT22;45078;51.654;21.250;2022-12-07T15:38:49;1.70;99.90
59311;DHT22;45078;51.654;21.250;2022-12-07T15:41:16;1.70;99.90
59311;DHT22;45078;51.654;21.250;2022-12-07T15:43:42;1.70;99.90
59311;DHT22;45078;51.654;21.250;2022-12-07T15:46:31;1.70;99.90
59311;DHT22;45078;51.654;21.250;2022-12-07T15:48:57;1.70;99.90
59311;DHT22;45078;51.654;21.250;2022-12-07T15:51:23;1.70;99.90
59311;DHT22;45078;51.654;21.250;2022-12-07T15:53:49;1.80;99.90
59311;DHT22;45078;51.654;21.250;2022-12-07T15:56:15;1.80;99.90
59311;DHT22;45078;51.654;21.250;2022-12-07T15:58:41;1.80;99.90
59311;DHT22;45078;51.654;21.250;2022-12-07T16:01:14;1.80;99.90
59311;DHT22;45078;51.654;21.250;2022-12-07T16:03:41;1.80;99.90
59311;DHT22;45078;51.654;21.250;2022-12-07T16:06:07;1.90;99.90
59311;DHT22;45078;51.654;21.250;2022-12-07T16:08:33;1.90;99.90
59311;DHT22;45078;51.654;21.250;2022-12-07T16:10:59;1.90;99.90
59311;DHT22;45078;51.654;21.250;2022-12-07T16:13:25;1.90;99.90
59311;DHT22;45078;51.654;21.250;2022-12-07T16:15:50;1.90;99.90
59311;DHT22;45078;51.654;21.250;2022-12-07T16:18:16;1.90;99.90
59311;DHT22;45078;51.654;21.250;2022-12-07T16:20:42;1.90;99.90
59311;DHT22;45078;51.654;21.250;2022-12-07T16:23:08;1.90;99.90
59311;DHT22;45078;51.654;21.250;2022-12-07T16:25:34;1.90;99.90
59311;DHT22;45078;51.654;21.250;2022-12-07T16:28:00;1.90;99.90
59311;DHT22;45078;51.654;21.250;2022-12-07T16:30:25;1.90;99.90
59311;DHT22;45078;51.654;21.250;2022-12-07T16:32:51;1.90;99.90
59311;DHT22;45078;51.654;21.250;2022-12-07T16:35:17;2.00;99.90
59311;DHT22;45078;51.654;21.250;2022-12-07T16:37:43;2.00;99.90
59311;DHT22;45078;51.654;21.250;2022-12-07T16:40:11;2.00;99.90
59311;DHT22;45078;51.654;21.250;2022-12-07T16:42:38;2.00;99.90
59311;DHT22;45078;51.654;21.250;2022-12-07T16:45:05;2.00;99.90
59311;DHT22;45078;51.654;21.250;2022-12-07T16:47:32;2.00;99.90
59311;DHT22;45078;51.654;21.250;2022-12-07T16:49:57;1.90;99.90
59311;DHT22;45078;51.654;21.250;2022-12-07T16:52:23;1.90;99.90
59311;DHT22;45078;51.654;21.250;2022-12-07T16:54:49;1.90;99.90
59311;DHT22;45078;51.654;21.250;2022-12-07T16:57:16;1.80;99.90
59311;DHT22;45078;51.654;21.250;2022-12-07T16:59:42;1.80;99.90
59311;DHT22;45078;51.654;21.250;2022-12-07T17:02:12;1.80;99.90
59311;DHT22;45078;51.654;21.250;2022-12-07T17:04:37;1.70;99.90
59311;DHT22;45078;51.654;21.250;2022-12-07T17:07:08;1.70;99.90
59311;DHT22;45078;51.654;21.250;2022-12-07T17:09:34;1.70;99.90
59311;DHT22;45078;51.654;21.250;2022-12-07T17:12:01;1.70;99.90
59311;DHT22;45078;51.654;21.250;2022-12-07T17:14:26;1.60;99.90
59311;DHT22;45078;51.654;21.250;2022-12-07T17:17:11;1.60;99.90
59311;DHT22;45078;51.654;21.250;2022-12-07T17:19:39;1.60;99.90
59311;DHT22;45078;51.654;21.250;2022-12-07T17:22:06;1.60;99.90
59311;DHT22;45078;51.654;21.250;2022-12-07T17:24:32;1.60;99.90
59311;DHT22;45078;51.654;21.250;2022-12-07T17:26:57;1.60;99.90
59311;DHT22;45078;51.654;21.250;2022-12-07T17:29:23;1.60;99.90
59311;DHT22;45078;51.654;21.250;2022-12-07T17:31:49;1.60;99.90
59311;DHT22;45078;51.654;21.250;2022-12-07T17:34:17;1.70;99.90
59311;DHT22;45078;51.654;21.250;2022-12-07T17:36:43;1.70;99.90
59311;DHT22;45078;51.654;21.250;2022-12-07T17:39:12;1.60;99.90
59311;DHT22;45078;51.654;21.250;2022-12-07T17:41:39;1.70;99.90
59311;DHT22;45078;51.654;21.250;2022-12-07T17:44:24;1.60;99.90
59311;DHT22;45078;51.654;21.250;2022-12-07T17:46:52;1.70;99.90
59311;DHT22;45078;51.654;21.250;2022-12-07T17:49:24;1.70;99.90
59311;DHT22;45078;51.654;21.250;2022-12-07T17:51:50;1.80;99.90
59311;DHT22;45078;51.654;21.250;2022-12-07T17:54:35;1.80;99.90
59311;DHT22;45078;51.654;21.250;2022-12-07T17:57:01;1.80;99.90
59311;DHT22;45078;51.654;21.250;2022-12-07T17:59:27;1.80;99.90
59311;DHT22;45078;51.654;21.250;2022-12-07T18:01:53;1.80;99.90
59311;DHT22;45078;51.654;21.250;2022-12-07T18:04:19;1.80;99.90
59311;DHT22;45078;51.654;21.250;2022-12-07T18:06:45;1.80;99.90
59311;DHT22;45078;51.654;21.250;2022-12-07T18:09:11;1.80;99.90
59311;DHT22;45078;51.654;21.250;2022-12-07T18:11:37;1.80;99.90
59311;DHT22;45078;51.654;21.250;2022-12-07T18:14:04;1.90;99.90
59311;DHT22;45078;51.654;21.250;2022-12-07T18:16:32;1.80;99.90